Time;durP1;ratioP1;P1;durP2;ratioP2;P2;SDS_P1;SDS_P2;PMS_P1;PMS_P2;Temp;Humidity;BMP_temperature;BMP_pressure;BME280_temperature;BME280_humidity;BME280_pressure;Samples;Min_cycle;Max_cycle;Signal;HPM_P1;HPM_P2
2022/04/18 00:02:25;;;;;;;3.50;2.83;;;;;;;13.90;49.47;99743.41;1679141;85;21534;-65
2022/04/18 00:04:52;;;;;;;4.75;3.20;;;;;;;13.89;49.47;99743.63;1680116;84;21122;-64
2022/04/18 00:07:18;;;;;;;4.70;3.27;;;;;;;13.88;49.48;99745.44;1679304;85;21070;-65
2022/04/18 00:09:46;;;;;;;4.97;2.95;;;;;;;13.88;49.48;99744.11;1679306;85;21069;-65
2022/04/18 00:12:14;;;;;;;6.22;2.72;;;;;;;13.87;49.48;99742.47;1679237;85;21017;-64
2022/04/18 00:14:41;;;;;;;3.67;2.77;;;;;;;13.87;49.48;99732.27;1679385;85;21055;-64
2022/04/18 00:17:09;;;;;;;5.12;3.00;;;;;;;13.87;49.49;99732.27;1679464;85;20998;-64
2022/04/18 00:19:37;;;;;;;5.10;3.10;;;;;;;13.86;49.47;99730.12;1679711;85;21041;-66
2022/04/18 00:22:05;;;;;;;4.53;3.15;;;;;;;13.85;49.49;99728.97;1680356;84;21307;-65
2022/04/18 00:24:32;;;;;;;4.33;3.25;;;;;;;13.85;49.48;99724.96;1679392;85;21158;-64
2022/04/18 00:27:01;;;;;;;6.67;3.83;;;;;;;13.84;49.49;99725.48;1679309;85;21537;-64
2022/04/18 00:29:27;;;;;;;4.58;3.27;;;;;;;13.82;49.49;99723.52;1679497;85;21005;-65
2022/04/18 00:31:55;;;;;;;4.60;2.92;;;;;;;13.81;49.50;99715.68;1694626;82;20999;-65
2022/04/18 00:34:24;;;;;;;5.22;2.65;;;;;;;13.80;49.50;99714.86;1707833;84;21018;-65
2022/04/18 00:36:50;;;;;;;3.77;2.60;;;;;;;13.80;49.51;99715.38;1707872;84;21137;-65
2022/04/18 00:39:20;;;;;;;5.30;3.27;;;;;;;13.79;49.52;99712.37;1701773;84;21026;-65
2022/04/18 00:41:47;;;;;;;4.45;2.85;;;;;;;13.77;49.50;99703.22;1679270;85;21050;-67
2022/04/18 00:44:14;;;;;;;6.10;3.05;;;;;;;13.77;49.52;99704.55;1679369;85;21053;-64
2022/04/18 00:46:40;;;;;;;4.87;2.40;;;;;;;13.76;49.53;99699.73;1679442;85;21017;-64
2022/04/18 00:49:06;;;;;;;4.17;3.15;;;;;;;13.75;49.53;99706.59;1679446;85;21338;-64
2022/04/18 00:51:34;;;;;;;3.80;2.72;;;;;;;13.75;49.54;99703.43;1679424;83;21463;-64
2022/04/18 00:54:01;;;;;;;3.77;2.47;;;;;;;13.74;49.54;99702.28;1635631;85;21073;-65
2022/04/18 00:56:27;;;;;;;3.65;2.60;;;;;;;13.73;49.52;99696.13;1680385;84;20990;-64
2022/04/18 00:58:55;;;;;;;5.20;2.85;;;;;;;13.73;49.54;99700.12;1679366;85;21537;-65
2022/04/18 01:01:23;;;;;;;3.50;2.80;;;;;;;13.73;49.55;99695.27;1679387;85;21254;-64
2022/04/18 01:03:52;;;;;;;5.58;3.05;;;;;;;13.72;49.55;99694.45;1713870;83;21077;-63
2022/04/18 01:06:19;;;;;;;3.65;2.62;;;;;;;13.71;49.54;99697.30;1714157;83;21525;-64
2022/04/18 01:08:47;;;;;;;4.45;2.52;;;;;;;13.70;49.55;99693.00;1713873;82;21090;-65
2022/04/18 01:11:14;;;;;;;5.80;3.00;;;;;;;13.69;49.58;99687.33;1714048;83;21575;-64
2022/04/18 01:13:57;;;;;;;3.95;2.47;;;;;;;13.67;49.54;99684.84;1714838;82;21136;-64
2022/04/18 01:16:32;;;;;;;4.67;2.45;;;;;;;13.68;49.57;99683.84;1680709;83;21073;-64
2022/04/18 01:19:01;;;;;;;4.30;2.30;;;;;;;13.67;49.58;99683.50;1677437;85;21101;-64
2022/04/18 01:21:32;;;;;;;4.05;2.55;;;;;;;13.67;49.58;99675.50;1674769;85;21029;-64
2022/04/18 01:29:33;;;;;;;4.12;2.52;;;;;;;13.66;49.59;99678.38;1679382;85;21507;-64
2022/04/18 01:32:00;;;;;;;3.22;2.40;;;;;;;13.64;49.58;99668.41;1694891;84;21117;-64
2022/04/18 01:34:26;;;;;;;3.20;2.50;;;;;;;13.62;49.59;99665.91;1707835;84;21026;-64
2022/04/18 01:36:53;;;;;;;6.97;2.90;;;;;;;13.63;49.61;99659.55;1707949;84;21466;-64
2022/04/18 01:39:19;;;;;;;4.22;2.72;;;;;;;13.62;49.60;99651.72;1707938;84;21146;-65
2022/04/18 01:41:46;;;;;;;3.15;2.50;;;;;;;13.61;49.59;99653.57;1707694;84;21010;-65
2022/04/18 01:44:13;;;;;;;3.17;2.42;;;;;;;13.62;49.61;99651.23;1707818;84;20998;-65
2022/04/18 01:46:40;;;;;;;4.03;2.77;;;;;;;13.60;49.59;99647.09;1707688;84;20998;-65
2022/04/18 01:49:07;;;;;;;4.53;2.35;;;;;;;13.60;49.58;99645.27;1732309;82;21566;-65
2022/04/18 01:51:36;;;;;;;3.67;2.70;;;;;;;13.60;49.58;99643.08;1743567;82;21236;-64
2022/04/18 01:54:04;;;;;;;3.80;2.70;;;;;;;13.60;49.58;99635.07;1711401;82;21081;-63
2022/04/18 01:56:32;;;;;;;3.98;2.87;;;;;;;13.59;49.59;99640.11;1715490;83;21497;-64
2022/04/18 01:58:58;;;;;;;5.03;2.60;;;;;;;13.59;49.59;99641.45;1715332;83;21045;-64
2022/04/18 02:01:25;;;;;;;4.78;3.17;;;;;;;13.58;49.62;99637.95;1734708;82;21050;-64
2022/04/18 02:03:52;;;;;;;3.67;2.60;;;;;;;13.56;49.61;99636.80;1750526;82;21497;-65
2022/04/18 02:06:19;;;;;;;3.87;2.58;;;;;;;13.57;49.60;99638.95;1751751;82;20999;-65
2022/04/18 02:08:46;;;;;;;3.40;2.47;;;;;;;13.55;49.60;99633.80;1715338;83;21009;-64
2022/04/18 02:11:15;;;;;;;5.80;3.30;;;;;;;13.55;49.60;99633.80;1715475;83;21021;-65
2022/04/18 02:13:43;;;;;;;4.85;3.37;;;;;;;13.56;49.61;99634.14;1715427;83;21473;-65
2022/04/18 02:16:11;;;;;;;5.22;2.92;;;;;;;13.55;49.61;99629.80;1715483;83;21245;-65
2022/04/18 02:18:39;;;;;;;3.62;2.72;;;;;;;13.54;49.62;99625.98;1751508;81;21015;-64
2022/04/18 02:21:11;;;;;;;5.47;3.10;;;;;;;13.53;49.61;99627.83;1714378;83;21101;-64
2022/04/18 02:23:35;;;;;;;3.65;2.85;;;;;;;13.53;49.60;99630.50;1715202;83;21014;-64
2022/04/18 02:26:01;;;;;;;4.05;2.52;;;;;;;13.52;49.60;99624.86;1715684;83;21022;-64
2022/04/18 02:28:28;;;;;;;3.77;3.00;;;;;;;13.52;49.62;99619.52;1715515;83;21778;-64
2022/04/18 02:30:55;;;;;;;4.83;3.10;;;;;;;13.51;49.62;99620.52;1715365;82;21045;-65
2022/04/18 02:33:22;;;;;;;3.83;3.08;;;;;;;13.50;49.61;99616.22;1715528;83;21069;-64
2022/04/18 02:35:51;;;;;;;4.85;3.60;;;;;;;13.51;49.63;99617.04;1715317;83;21025;-65
2022/04/18 02:38:17;;;;;;;4.72;3.30;;;;;;;13.50;49.60;99616.22;1714577;83;21491;-65
2022/04/18 02:40:46;;;;;;;4.28;2.83;;;;;;;13.50;49.63;99611.37;1715701;83;21568;-65
2022/04/18 02:43:12;;;;;;;4.95;3.08;;;;;;;13.49;49.63;99610.55;1715374;83;21045;-64
2022/04/18 02:45:42;;;;;;;4.83;3.08;;;;;;;13.49;49.60;99609.22;1715397;83;21112;-64
2022/04/18 02:48:13;;;;;;;5.22;2.90;;;;;;;13.49;49.61;99616.41;1751313;81;20991;-63
2022/04/18 02:50:42;;;;;;;4.35;3.00;;;;;;;13.47;49.62;99611.25;1751341;81;21518;-64
2022/04/18 02:53:09;;;;;;;3.30;2.85;;;;;;;13.47;49.63;99612.59;1751527;82;21153;-65
2022/04/18 02:55:40;;;;;;;5.05;3.00;;;;;;;13.47;49.62;99606.43;1714185;83;21021;-64
2022/04/18 02:58:07;;;;;;;5.00;2.65;;;;;;;13.46;49.63;99605.61;1715497;83;21006;-64
2022/04/18 03:00:36;;;;;;;3.87;2.47;;;;;;;13.45;49.64;99601.28;1715418;83;21513;-65
2022/04/18 03:03:04;;;;;;;4.97;3.10;;;;;;;13.45;49.64;99603.95;1715515;83;21061;-65
2022/04/18 03:05:31;;;;;;;7.12;3.10;;;;;;;13.44;49.63;99595.61;1715466;83;21778;-65
2022/04/18 03:07:59;;;;;;;4.95;2.50;;;;;;;13.44;49.65;99599.61;1715585;83;21005;-66
2022/04/18 03:13:14;;;;;;;3.60;2.80;;;;;;;13.44;49.65;99597.45;1714358;83;21013;-65
2022/04/18 03:15:42;;;;;;;3.72;2.67;;;;;;;13.42;49.65;99605.65;1715419;83;21025;-65
2022/04/18 03:18:12;;;;;;;2.77;2.30;;;;;;;13.41;49.65;99598.67;1751522;81;21239;-63
2022/04/18 03:20:42;;;;;;;3.12;2.60;;;;;;;13.42;49.66;99600.31;1715341;83;21006;-64
2022/04/18 03:23:11;;;;;;;3.12;2.50;;;;;;;13.41;49.67;99601.34;1715491;83;21041;-65
2022/04/18 03:25:56;;;;;;;4.78;3.27;;;;;;;13.41;49.66;99605.34;1749877;81;20986;-65
2022/04/18 03:28:32;;;;;;;3.65;2.47;;;;;;;13.41;49.70;99593.86;1715404;83;21565;-64
2022/04/18 03:30:53;;;;;;;3.27;2.17;;;;;;;13.41;49.70;99591.19;1713628;82;21131;-64
2022/04/18 03:33:20;;;;;;;2.75;2.17;;;;;;;13.40;49.70;99593.52;1716625;82;21049;-63
2022/04/18 03:41:19;;;;;;;2.60;2.15;;;;;;;13.37;49.69;99579.55;1715536;83;21038;-65
2022/04/18 03:43:45;;;;;;;3.87;2.58;;;;;;;13.37;49.71;99579.55;1715580;83;21141;-65
2022/04/18 03:46:12;;;;;;;2.98;2.40;;;;;;;13.37;49.74;99574.21;1710488;83;21025;-64
2022/04/18 03:48:38;;;;;;;3.00;2.15;;;;;;;13.36;49.74;99573.06;1686692;85;21504;-65
2022/04/18 03:51:05;;;;;;;4.17;2.50;;;;;;;13.37;49.71;99568.06;1686703;83;21045;-64
2022/04/18 03:53:33;;;;;;;5.33;2.80;;;;;;;13.36;49.73;99570.39;1686649;85;21006;-64
2022/04/18 03:56:00;;;;;;;3.27;2.20;;;;;;;13.37;49.73;99573.39;1679197;85;21155;-64
2022/04/18 03:58:29;;;;;;;3.55;2.40;;;;;;;13.36;49.73;99570.39;1674379;85;21010;-64
2022/04/18 04:00:56;;;;;;;2.67;2.20;;;;;;;13.37;49.73;99569.39;1679462;85;21053;-64
2022/04/18 04:03:24;;;;;;;3.30;2.45;;;;;;;13.37;49.73;99564.05;1680325;84;21058;-66
2022/04/18 04:05:53;;;;;;;4.55;3.08;;;;;;;13.37;49.73;99560.05;1679249;85;21014;-65
2022/04/18 04:09:30;;;;;;;3.65;2.75;;;;;;;13.40;49.72;99558.31;1870511;76;28037;-66
2022/04/18 04:11:57;;;;;;;3.60;2.40;;;;;;;13.37;49.71;99556.05;1826774;78;20984;-65
2022/04/18 04:14:23;;;;;;;2.72;2.17;;;;;;;13.38;49.68;99548.34;1826581;78;21136;-65
2022/04/18 04:16:52;;;;;;;3.25;2.50;;;;;;;13.37;49.68;99540.86;1826463;78;20941;-64
2022/04/18 04:19:20;;;;;;;2.58;2.10;;;;;;;13.37;49.67;99536.86;1826550;78;21524;-64
2022/04/18 04:21:47;;;;;;;2.42;2.08;;;;;;;13.37;49.67;99532.03;1799764;78;21090;-64
2022/04/18 04:24:13;;;;;;;3.40;2.35;;;;;;;13.37;49.69;99529.37;1758837;81;21013;-64
2022/04/18 04:26:45;;;;;;;2.47;2.00;;;;;;;13.38;49.68;99523.00;1748071;82;21115;-64
2022/04/18 04:29:15;;;;;;;2.83;2.17;;;;;;;13.36;49.67;99524.52;1747768;82;20989;-65
2022/04/18 04:31:46;;;;;;;4.17;2.40;;;;;;;13.36;49.67;99517.84;1766881;80;21497;-64
2022/04/18 04:34:16;;;;;;;3.42;2.02;;;;;;;13.37;49.66;99518.70;1779053;80;21038;-65
2022/04/18 04:36:44;;;;;;;2.45;1.92;;;;;;;13.37;49.67;99516.84;1778436;80;21033;-65
2022/04/18 04:39:11;;;;;;;2.77;2.40;;;;;;;13.37;49.67;99510.69;1778594;80;21236;-64
2022/04/18 04:41:40;;;;;;;2.75;2.12;;;;;;;13.36;49.67;99508.52;1777999;80;21076;-64
2022/04/18 04:44:07;;;;;;;4.60;2.50;;;;;;;13.36;49.69;99504.51;1778940;80;21042;-65
2022/04/18 04:46:36;;;;;;;2.72;2.20;;;;;;;13.37;49.67;99509.36;1776245;80;21070;-64
2022/04/18 04:49:05;;;;;;;2.62;2.02;;;;;;;13.36;49.67;99506.36;1778476;80;21023;-65
2022/04/18 04:51:34;;;;;;;3.00;2.00;;;;;;;13.35;49.69;99510.06;1779028;80;22930;-65
2022/04/18 04:54:01;;;;;;;3.40;2.08;;;;;;;13.35;49.67;99507.39;1776141;80;20998;-65
2022/04/18 04:56:34;;;;;;;2.65;1.95;;;;;;;13.36;49.68;99511.70;1748341;81;21077;-64
2022/04/18 04:59:03;;;;;;;3.42;2.17;;;;;;;13.35;49.70;99508.21;1748255;82;21050;-64
2022/04/18 05:01:31;;;;;;;3.37;2.12;;;;;;;13.35;49.69;99503.39;1748121;82;21026;-65
2022/04/18 05:04:02;;;;;;;2.30;1.87;;;;;;;13.36;49.67;99506.36;1748133;80;21237;-64
2022/04/18 05:06:29;;;;;;;3.27;2.08;;;;;;;13.36;49.68;99498.36;1748115;82;20998;-64
2022/04/18 05:08:59;;;;;;;2.40;2.20;;;;;;;13.35;49.69;99501.54;1751671;81;20994;-64
2022/04/18 05:11:26;;;;;;;3.00;2.05;;;;;;;13.36;49.69;99503.69;1754750;80;21067;-65
2022/04/18 05:13:54;;;;;;;2.10;1.87;;;;;;;13.36;49.68;99501.84;1753649;80;21029;-65
2022/04/18 05:16:27;;;;;;;2.12;1.77;;;;;;;13.37;49.67;99505.36;1752170;81;20985;-65
2022/04/18 05:19:08;;;;;;;2.02;1.82;;;;;;;13.37;49.68;99501.36;1751840;81;21083;-65
2022/04/18 05:21:35;;;;;;;2.37;1.80;;;;;;;13.37;49.67;99500.02;1753172;81;21001;-66
2022/04/18 05:24:05;;;;;;;2.98;2.05;;;;;;;13.39;49.67;99499.84;1751742;81;21068;-65
2022/04/18 05:26:32;;;;;;;1.60;1.50;;;;;;;13.38;49.68;99494.98;1790819;80;21017;-65
2022/04/18 05:28:59;;;;;;;2.02;1.62;;;;;;;13.39;49.67;99501.98;1752971;81;21149;-65
2022/04/18 05:31:25;;;;;;;2.72;1.77;;;;;;;13.41;49.67;99499.13;1774651;80;20994;-65
2022/04/18 05:33:53;;;;;;;2.95;2.10;;;;;;;13.40;49.65;99495.61;1823184;78;20987;-65
2022/04/18 05:36:34;;;;;;;2.30;1.70;;;;;;;13.41;49.69;99495.12;1821134;78;20978;-65
2022/04/18 05:39:02;;;;;;;4.53;2.10;;;;;;;13.41;49.67;99495.95;1823462;78;21088;-65
2022/04/18 05:41:33;;;;;;;1.92;1.60;;;;;;;13.41;49.66;99497.80;1821551;78;22259;-65
2022/04/18 05:44:01;;;;;;;2.15;1.90;;;;;;;13.42;49.65;99502.09;1823148;78;20991;-65
2022/04/18 05:46:29;;;;;;;2.22;1.85;;;;;;;13.41;49.65;99492.46;1821875;78;21045;-65
2022/04/18 05:48:57;;;;;;;2.35;2.00;;;;;;;13.41;49.67;99491.13;1823250;77;21481;-64
2022/04/18 05:51:23;;;;;;;2.77;1.77;;;;;;;13.41;49.65;99493.28;1823269;78;20978;-63
2022/04/18 05:53:50;;;;;;;1.90;1.60;;;;;;;13.42;49.66;99490.09;1823200;78;21111;-65
2022/04/18 05:56:21;;;;;;;2.75;1.90;;;;;;;13.42;49.64;99489.58;1822347;78;21529;-64
2022/04/18 05:58:54;;;;;;;1.98;1.60;;;;;;;13.42;49.63;99488.76;1822846;78;20994;-65
2022/04/18 06:01:39;;;;;;;2.75;2.42;;;;;;;13.42;49.63;99484.76;1823460;77;21021;-65
2022/04/18 06:04:14;;;;;;;2.37;1.82;;;;;;;13.42;49.65;99486.91;1820409;78;21037;-64
2022/04/18 06:06:42;;;;;;;2.50;1.72;;;;;;;13.43;49.64;99491.24;1823276;78;21010;-64
2022/04/18 06:09:09;;;;;;;1.90;1.70;;;;;;;13.43;49.65;99485.09;1824881;77;20995;-65
2022/04/18 06:11:37;;;;;;;2.17;1.62;;;;;;;13.44;49.65;99482.20;1826202;78;20978;-65
2022/04/18 06:14:15;;;;;;;2.35;1.95;;;;;;;13.44;49.64;99482.20;1826081;78;21053;-65
2022/04/18 06:16:44;;;;;;;3.00;2.10;;;;;;;13.45;49.63;99481.72;1826015;78;21056;-65
2022/04/18 06:19:11;;;;;;;2.87;1.90;;;;;;;13.45;49.64;99478.53;1824941;78;21116;-64
2022/04/18 06:21:38;;;;;;;2.22;1.80;;;;;;;13.46;49.63;99478.86;1826095;78;21481;-64
2022/04/18 06:24:06;;;;;;;2.27;1.87;;;;;;;13.47;49.61;99483.16;1826099;78;20991;-64
2022/04/18 06:26:35;;;;;;;2.12;1.85;;;;;;;13.47;49.59;99472.48;1825888;78;21025;-65
2022/04/18 06:29:03;;;;;;;2.65;2.10;;;;;;;13.47;49.61;99476.48;1826170;78;21572;-64
2022/04/18 06:31:31;;;;;;;2.22;1.80;;;;;;;13.48;49.61;99477.31;1826123;78;21135;-65
2022/04/18 06:34:00;;;;;;;1.98;1.70;;;;;;;13.49;49.60;99480.31;1825628;78;21075;-65
2022/04/18 06:36:27;;;;;;;2.25;2.05;;;;;;;13.50;49.61;99477.45;1817705;78;21053;-66
2022/04/18 06:38:55;;;;;;;2.08;1.87;;;;;;;13.50;49.60;99481.94;1747242;81;21065;-64
2022/04/18 06:41:26;;;;;;;2.58;2.00;;;;;;;13.52;49.60;99481.23;1739463;82;21038;-66
2022/04/18 06:43:53;;;;;;;3.02;1.95;;;;;;;13.53;49.58;99480.23;1747692;82;21145;-65
2022/04/18 06:46:20;;;;;;;2.20;1.65;;;;;;;13.53;49.60;99479.72;1747783;82;21025;-65
2022/04/18 06:48:48;;;;;;;2.52;2.20;;;;;;;13.54;49.57;99480.53;1747635;82;21073;-64
2022/04/18 06:51:20;;;;;;;2.25;1.95;;;;;;;13.56;49.57;99477.19;1747758;82;21042;-65
2022/04/18 06:53:51;;;;;;;3.10;2.40;;;;;;;13.57;49.58;99481.49;1732686;82;21005;-65
2022/04/18 06:59:23;;;;;;;2.15;1.95;;;;;;;13.58;49.57;99489.83;1680012;85;21053;-65
2022/04/18 07:01:51;;;;;;;2.40;1.90;;;;;;;13.57;49.55;99487.64;1722473;83;21030;-65
2022/04/18 07:04:18;;;;;;;2.37;2.00;;;;;;;13.57;49.58;99486.31;1736154;81;21021;-66
2022/04/18 07:06:45;;;;;;;2.58;2.08;;;;;;;13.57;49.56;99486.31;1756066;81;21053;-65
2022/04/18 07:09:12;;;;;;;3.35;2.50;;;;;;;13.59;49.55;99482.64;1752109;80;22032;-65
2022/04/18 07:11:41;;;;;;;2.30;1.92;;;;;;;13.59;49.55;99479.45;1749362;80;21036;-65
2022/04/18 07:14:07;;;;;;;2.95;1.90;;;;;;;13.59;49.57;99479.45;1788261;80;20991;-65
2022/04/18 07:16:36;;;;;;;3.00;2.10;;;;;;;13.61;49.57;99479.27;1748261;82;21614;-65
2022/04/18 07:19:03;;;;;;;2.20;1.95;;;;;;;13.61;49.54;99483.27;1788322;80;21057;-64
2022/04/18 07:21:30;;;;;;;2.25;1.90;;;;;;;13.60;49.54;99486.45;1748311;82;21190;-65
2022/04/18 07:23:57;;;;;;;2.10;1.87;;;;;;;13.63;49.55;99489.23;1788634;80;20990;-64
2022/04/18 07:26:25;;;;;;;2.05;1.75;;;;;;;13.63;49.56;99490.05;1748282;82;21002;-65
2022/04/18 07:28:53;;;;;;;2.58;1.80;;;;;;;13.64;49.55;99489.56;1789500;78;21018;-65
2022/04/18 07:31:19;;;;;;;3.25;2.00;;;;;;;13.65;49.53;99489.86;1748431;82;21511;-65
2022/04/18 07:33:46;;;;;;;4.42;2.27;;;;;;;13.66;49.53;99484.86;1820562;78;21851;-66
2022/04/18 07:36:15;;;;;;;3.10;2.30;;;;;;;13.67;49.53;99484.64;1802394;78;21042;-65
2022/04/18 07:38:49;;;;;;;2.70;2.20;;;;;;;13.68;49.54;99480.96;1820457;78;21006;-65
2022/04/18 07:41:21;;;;;;;3.62;2.45;;;;;;;13.70;49.53;99474.92;1820790;78;21505;-65
2022/04/18 07:43:50;;;;;;;2.85;1.87;;;;;;;13.73;49.54;99476.36;1820132;78;21497;-65
2022/04/18 07:46:18;;;;;;;2.52;2.05;;;;;;;13.75;49.54;99465.82;1788308;79;21057;-64
2022/04/18 07:48:47;;;;;;;3.95;2.42;;;;;;;13.78;49.56;99461.92;1788186;80;21540;-65
2022/04/18 07:51:32;;;;;;;3.47;2.37;;;;;;;13.80;49.58;99461.22;1788340;80;21185;-65
2022/04/18 07:54:04;;;;;;;2.80;2.12;;;;;;;13.83;49.57;99459.99;1788178;80;21605;-64
2022/04/18 07:56:34;;;;;;;3.15;2.45;;;;;;;13.85;49.55;99460.63;1788297;79;21033;-64
2022/04/18 07:59:01;;;;;;;3.12;2.30;;;;;;;13.88;49.54;99469.06;1788487;80;21080;-64
2022/04/18 08:01:30;;;;;;;3.50;1.90;;;;;;;13.89;49.53;99462.72;1789279;78;21131;-65
2022/04/18 08:03:59;;;;;;;4.15;2.52;;;;;;;13.90;49.55;99463.53;1748276;82;21457;-64
2022/04/18 08:06:27;;;;;;;2.60;2.00;;;;;;;13.92;49.52;99463.64;1788289;80;21030;-65
2022/04/18 08:09:06;;;;;;;2.33;1.90;;;;;;;13.93;49.51;99459.97;1730522;81;21052;-64
2022/04/18 08:11:34;;;;;;;3.37;2.40;;;;;;;13.94;49.50;99460.78;1744589;82;21485;-66
2022/04/18 08:14:01;;;;;;;3.77;2.35;;;;;;;13.95;49.50;99456.59;1744456;82;21022;-64
2022/04/18 08:16:50;;;;;;;2.92;2.02;;;;;;;13.97;49.47;99457.73;1743345;82;20987;-64
2022/04/18 08:19:29;;;;;;;3.02;2.35;;;;;;;13.98;49.45;99447.86;1745469;80;20994;-64
2022/04/18 08:21:57;;;;;;;2.15;1.95;;;;;;;14.00;49.45;99457.84;1744579;82;20994;-65
2022/04/18 08:24:24;;;;;;;2.37;2.17;;;;;;;13.99;49.42;99446.34;1744620;82;21141;-66
2022/04/18 08:27:02;;;;;;;2.65;2.10;;;;;;;14.01;49.47;99444.30;1709791;82;21049;-65
2022/04/18 08:29:33;;;;;;;4.72;2.58;;;;;;;14.03;49.46;99441.43;1744162;82;21587;-65
2022/04/18 08:32:19;;;;;;;2.52;2.33;;;;;;;14.05;49.43;99444.73;1744583;82;21046;-65
2022/04/18 08:34:45;;;;;;;2.35;1.90;;;;;;;14.05;49.44;99447.40;1744698;80;21501;-64
2022/04/18 08:37:15;;;;;;;2.22;1.80;;;;;;;14.06;49.44;99438.34;1774386;80;21149;-64
2022/04/18 08:39:49;;;;;;;4.05;2.65;;;;;;;14.06;49.46;99447.20;1740760;80;20967;-66
2022/04/18 08:42:18;;;;;;;2.42;2.10;;;;;;;14.07;49.43;99448.02;1775226;80;21632;-65
2022/04/18 08:44:50;;;;;;;3.55;2.40;;;;;;;14.09;49.44;99441.97;1775147;80;21046;-65
2022/04/18 08:52:52;;;;;;;2.95;2.25;;;;;;;14.12;49.44;99434.91;1773911;80;21529;-64
2022/04/18 08:55:30;;;;;;;3.17;2.30;;;;;;;14.14;49.51;99436.34;1774062;80;21604;-65
2022/04/18 08:57:57;;;;;;;3.52;2.27;;;;;;;14.16;49.53;99430.30;1745159;80;21155;-64
2022/04/18 09:00:25;;;;;;;2.75;2.25;;;;;;;14.19;49.55;99434.41;1775410;80;21524;-64
2022/04/18 09:02:55;;;;;;;3.33;2.62;;;;;;;14.22;49.63;99430.01;1775359;80;21474;-64
2022/04/18 09:05:23;;;;;;;2.50;2.20;;;;;;;14.25;49.59;99436.27;1775057;80;21026;-65
2022/04/18 09:07:59;;;;;;;2.50;2.12;;;;;;;14.28;49.59;99423.86;1775331;80;21031;-64
2022/04/18 09:10:28;;;;;;;3.40;2.25;;;;;;;14.31;49.58;99426.63;1766375;80;21487;-65
2022/04/18 09:13:11;;;;;;;3.75;2.35;;;;;;;14.34;49.56;99428.92;1764716;80;21019;-64
2022/04/18 09:15:49;;;;;;;2.45;2.17;;;;;;;14.35;49.54;99428.73;1763674;81;21416;-64
2022/04/18 09:18:19;;;;;;;2.83;2.22;;;;;;;14.36;49.51;99422.34;1765048;81;21093;-64
2022/04/18 09:20:56;;;;;;;2.87;2.45;;;;;;;14.38;49.50;99424.00;1764760;81;21030;-65
2022/04/18 09:23:30;;;;;;;2.65;2.02;;;;;;;14.39;49.50;99421.14;1764901;81;21042;-65
2022/04/18 09:26:10;;;;;;;3.90;2.17;;;;;;;14.42;49.50;99415.89;1763958;80;21018;-64
2022/04/18 09:28:42;;;;;;;2.60;1.90;;;;;;;14.43;49.51;99410.84;1764983;80;21112;-64
2022/04/18 09:31:12;;;;;;;3.02;2.55;;;;;;;14.45;49.49;99403.48;1764591;81;21545;-64
2022/04/18 09:33:55;;;;;;;3.47;2.20;;;;;;;14.47;49.51;99412.12;1761416;81;21498;-64
2022/04/18 09:36:23;;;;;;;3.27;2.27;;;;;;;14.49;49.49;99407.39;1751516;82;21018;-66
2022/04/18 09:38:53;;;;;;;2.98;2.10;;;;;;;14.51;49.47;99406.67;1728270;82;21580;-64
2022/04/18 09:41:38;;;;;;;3.15;2.20;;;;;;;14.52;49.45;99402.44;1751656;81;21129;-65
2022/04/18 09:44:12;;;;;;;3.05;2.20;;;;;;;14.54;49.45;99407.59;1739152;81;21058;-64
2022/04/18 09:46:42;;;;;;;4.30;2.27;;;;;;;14.53;49.43;99409.45;1678729;82;21019;-64
2022/04/18 09:49:10;;;;;;;3.12;2.20;;;;;;;14.54;49.42;99406.25;1733843;82;21061;-64
2022/04/18 09:51:42;;;;;;;3.05;2.50;;;;;;;14.53;49.39;99405.44;1734414;81;21015;-64
2022/04/18 09:54:11;;;;;;;2.95;2.45;;;;;;;14.54;49.41;99407.09;1734208;82;21102;-64
2022/04/18 09:56:48;;;;;;;2.77;2.30;;;;;;;14.54;49.36;99407.09;1690187;82;21038;-64
2022/04/18 09:59:16;;;;;;;3.05;2.30;;;;;;;14.54;49.38;99405.77;1745243;82;21320;-65
2022/04/18 10:01:43;;;;;;;3.52;2.20;;;;;;;14.55;49.41;99402.57;1746024;80;21540;-66
2022/04/18 10:04:10;;;;;;;2.08;1.87;;;;;;;14.55;49.35;99400.71;1745080;82;21013;-65
2022/04/18 10:06:40;;;;;;;3.05;2.12;;;;;;;14.57;49.36;99398.39;1745177;82;21260;-64
2022/04/18 10:09:06;;;;;;;2.80;2.50;;;;;;;14.57;49.35;99393.05;1745446;80;21076;-63
2022/04/18 10:11:33;;;;;;;3.10;2.47;;;;;;;14.57;49.31;99392.53;1753114;81;21085;-65
2022/04/18 10:14:00;;;;;;;2.30;2.10;;;;;;;14.57;49.34;99397.88;1753092;81;21052;-65
2022/04/18 10:16:27;;;;;;;3.50;2.67;;;;;;;14.57;49.29;99404.55;1790902;80;21049;-65
2022/04/18 10:18:58;;;;;;;2.50;2.30;;;;;;;14.58;49.29;99396.83;1753151;81;21049;-64
2022/04/18 10:21:31;;;;;;;3.27;2.58;;;;;;;14.58;49.26;99398.17;1753137;81;21427;-64
2022/04/18 10:24:09;;;;;;;3.87;2.52;;;;;;;14.57;49.17;99396.53;1753050;81;21001;-64
2022/04/18 10:27:28;;;;;;;2.65;2.35;;;;;;;14.55;49.14;99398.56;1753103;81;21110;-64
2022/04/18 10:29:56;;;;;;;2.77;2.20;;;;;;;14.55;49.09;99399.90;1755174;80;21013;-64
2022/04/18 10:32:24;;;;;;;2.87;2.20;;;;;;;14.53;49.08;99393.41;1784294;79;21158;-65
2022/04/18 10:34:52;;;;;;;2.65;2.00;;;;;;;14.52;49.06;99393.61;1770665;80;21500;-64
2022/04/18 10:37:25;;;;;;;3.08;2.47;;;;;;;14.51;49.06;99390.64;1753172;81;21037;-64
2022/04/18 10:40:03;;;;;;;2.52;2.20;;;;;;;14.50;49.06;99395.66;1753093;81;21571;-65
2022/04/18 10:42:36;;;;;;;3.62;1.87;;;;;;;14.50;49.06;99393.80;1753079;81;21061;-66
2022/04/18 10:45:19;;;;;;;2.60;2.17;;;;;;;14.49;49.05;99398.85;1753222;81;21799;-64
2022/04/18 10:48:08;;;;;;;2.58;2.00;;;;;;;14.50;49.06;99399.67;1733919;82;21042;-64
2022/04/18 10:50:49;;;;;;;2.27;1.80;;;;;;;14.50;49.05;99395.14;1753065;81;21162;-64
2022/04/18 10:53:34;;;;;;;2.42;2.10;;;;;;;14.50;49.07;99391.65;1783995;80;20986;-64
2022/04/18 10:56:08;;;;;;;3.02;2.17;;;;;;;14.50;49.08;99392.98;1784027;80;21044;-65
2022/04/18 10:58:37;;;;;;;1.98;1.77;;;;;;;14.51;49.10;99398.66;1753181;81;21180;-65
2022/04/18 11:01:07;;;;;;;2.55;2.00;;;;;;;14.52;49.11;99396.28;1752895;81;21017;-65
2022/04/18 11:03:57;;;;;;;4.08;2.15;;;;;;;14.51;49.16;99390.64;1753031;81;21036;-65
2022/04/18 11:06:38;;;;;;;2.83;2.22;;;;;;;14.53;49.12;99385.91;1753115;81;21079;-64
2022/04/18 11:09:11;;;;;;;2.62;1.65;;;;;;;14.54;49.11;99391.06;1754264;80;21485;-64
2022/04/18 11:12:08;;;;;;;2.62;1.90;;;;;;;14.55;49.16;99387.34;1753090;81;21009;-63
2022/04/18 11:14:57;;;;;;;2.12;1.80;;;;;;;14.55;49.16;99388.68;1753024;81;21083;-63
2022/04/18 11:17:29;;;;;;;2.05;1.85;;;;;;;14.57;49.17;99387.70;1822832;78;21481;-64
2022/04/18 11:19:55;;;;;;;2.00;1.80;;;;;;;14.58;49.16;99385.33;1823449;78;21022;-64
2022/04/18 11:22:23;;;;;;;2.50;1.90;;;;;;;14.58;49.15;99383.47;1823187;77;21022;-64
2022/04/18 11:24:55;;;;;;;1.87;1.77;;;;;;;14.60;49.20;99384.09;1822305;78;21109;-64
2022/04/18 11:27:29;;;;;;;1.98;1.80;;;;;;;14.62;49.20;99376.72;1790913;80;21065;-65
2022/04/18 11:30:11;;;;;;;1.75;1.65;;;;;;;14.65;49.16;99376.81;1793507;78;20974;-65
2022/04/18 11:32:44;;;;;;;2.55;1.95;;;;;;;14.68;49.15;99371.04;1823462;78;21537;-64
2022/04/18 11:35:12;;;;;;;3.20;2.05;;;;;;;14.71;49.12;99373.31;1823431;78;20985;-65
2022/04/18 11:37:43;;;;;;;2.42;1.95;;;;;;;14.74;49.09;99370.25;1823111;77;21526;-65
2022/04/18 11:40:13;;;;;;;3.75;2.42;;;;;;;14.77;49.07;99370.34;1823224;78;21052;-65
2022/04/18 11:42:41;;;;;;;2.30;1.87;;;;;;;14.82;49.03;99370.56;1822138;77;21053;-64
2022/04/18 11:45:10;;;;;;;1.90;1.60;;;;;;;14.85;49.01;99368.80;1823218;78;21037;-64
2022/04/18 11:47:44;;;;;;;2.40;1.55;;;;;;;14.87;48.97;99366.74;1823226;78;20997;-64
2022/04/18 11:50:10;;;;;;;1.85;1.75;;;;;;;14.89;48.96;99368.69;1823210;78;21199;-64
2022/04/18 11:52:39;;;;;;;3.47;1.70;;;;;;;14.90;48.90;99367.16;1823057;78;20955;-64
2022/04/18 11:55:13;;;;;;;2.17;1.67;;;;;;;14.91;48.86;99358.61;1823135;78;21476;-65
2022/04/18 11:57:42;;;;;;;1.67;1.57;;;;;;;14.92;48.85;99367.77;1823191;78;21034;-64
2022/04/18 12:08:46;;;;;;;2.05;1.85;;;;;;;14.92;48.75;99365.62;1823066;78;21154;-64
2022/04/18 12:11:13;;;;;;;1.50;1.40;;;;;;;14.90;48.77;99353.78;1824811;77;21009;-64
2022/04/18 12:13:44;;;;;;;2.12;1.80;;;;;;;14.90;48.77;99355.64;1826121;78;21018;-64
2022/04/18 12:16:12;;;;;;;2.33;2.00;;;;;;;14.91;48.76;99359.95;1824258;78;21278;-65
2022/04/18 12:18:39;;;;;;;2.17;1.87;;;;;;;14.90;48.74;99352.45;1825998;78;21022;-64
2022/04/18 12:21:08;;;;;;;1.70;1.60;;;;;;;14.90;48.77;99342.27;1825979;78;20991;-64